createdAt,value
2023-06-27T00:01:00.182Z,41.94
2023-06-27T00:03:26.863Z,41.95
2023-06-27T00:05:53.638Z,42.05
2023-06-27T00:08:20.283Z,42.07
2023-06-27T00:10:46.877Z,42.08
2023-06-27T00:13:13.440Z,42.17
2023-06-27T00:15:40.254Z,42.06
2023-06-27T00:18:07.012Z,42.12
2023-06-27T00:20:33.576Z,42.07
2023-06-27T00:23:00.204Z,42.20
2023-06-27T00:25:26.796Z,42.29
2023-06-27T00:27:53.373Z,42.27
2023-06-27T00:30:19.973Z,42.30
2023-06-27T00:32:46.589Z,42.30
2023-06-27T00:35:13.182Z,42.33
2023-06-27T00:37:39.781Z,42.44
2023-06-27T00:40:06.366Z,42.41
2023-06-27T00:42:32.931Z,42.41
2023-06-27T00:44:59.514Z,42.40
2023-06-27T00:47:26.117Z,42.43
2023-06-27T00:49:52.775Z,42.49
2023-06-27T00:52:19.419Z,42.35
2023-06-27T00:54:45.986Z,42.40
2023-06-27T00:57:12.672Z,42.49
2023-06-27T00:59:39.272Z,42.38
2023-06-27T01:02:05.899Z,42.43
2023-06-27T01:04:32.493Z,42.50
2023-06-27T01:06:59.115Z,42.45
2023-06-27T01:09:25.725Z,42.54
2023-06-27T01:11:52.309Z,42.61
2023-06-27T01:14:18.904Z,42.75
2023-06-27T01:16:45.481Z,42.79
2023-06-27T01:19:12.080Z,42.76
2023-06-27T01:21:38.665Z,42.65
2023-06-27T01:24:05.232Z,42.83
2023-06-27T01:26:31.825Z,42.75
2023-06-27T01:28:58.404Z,42.79
2023-06-27T01:31:25.041Z,42.69
2023-06-27T01:33:51.661Z,42.73
2023-06-27T01:36:18.259Z,42.64
2023-06-27T01:38:44.931Z,42.68
2023-06-27T01:41:11.521Z,42.70
2023-06-27T01:43:38.093Z,42.76
2023-06-27T01:46:04.740Z,42.75
2023-06-27T01:48:31.380Z,42.79
2023-06-27T01:50:57.977Z,42.77
2023-06-27T01:53:24.599Z,42.84
2023-06-27T01:55:51.213Z,42.89
2023-06-27T01:58:17.826Z,42.97
2023-06-27T02:00:44.503Z,43.02
2023-06-27T02:03:12.840Z,43.18
2023-06-27T02:05:39.790Z,43.19
2023-06-27T02:08:06.654Z,43.22
2023-06-27T02:10:33.254Z,43.17
2023-06-27T02:12:59.841Z,43.20
2023-06-27T02:15:26.441Z,43.18
2023-06-27T02:17:53.059Z,43.17
2023-06-27T02:20:19.659Z,43.26
2023-06-27T02:22:46.251Z,43.16
2023-06-27T02:25:12.827Z,43.17
2023-06-27T02:27:39.432Z,42.98
2023-06-27T02:30:06.049Z,43.00
2023-06-27T02:32:32.704Z,42.97
2023-06-27T02:34:59.311Z,43.03
2023-06-27T02:37:25.925Z,42.98
2023-06-27T02:39:52.562Z,43.00
2023-06-27T02:42:19.147Z,42.98
2023-06-27T02:44:45.752Z,43.14
2023-06-27T02:47:12.334Z,43.16
2023-06-27T02:49:38.908Z,43.16
2023-06-27T02:52:05.535Z,43.24
2023-06-27T02:54:32.178Z,43.38
2023-06-27T02:56:58.785Z,43.32
2023-06-27T02:59:25.372Z,43.46
2023-06-27T03:01:51.994Z,43.52
2023-06-27T03:04:19.936Z,43.38
2023-06-27T03:06:46.792Z,43.44
2023-06-27T03:09:13.428Z,43.36
2023-06-27T03:11:40.046Z,43.40
2023-06-27T03:14:06.635Z,43.47
2023-06-27T03:16:33.223Z,43.48
2023-06-27T03:18:59.840Z,43.31
2023-06-27T03:21:26.436Z,43.18
2023-06-27T03:23:53.031Z,43.09
2023-06-27T03:26:19.630Z,43.08
2023-06-27T03:28:46.221Z,43.16
2023-06-27T03:31:12.798Z,43.09
2023-06-27T03:33:39.399Z,43.10
2023-06-27T03:36:05.988Z,43.07
2023-06-27T03:38:32.591Z,43.10
2023-06-27T03:40:59.205Z,43.08
2023-06-27T03:43:25.801Z,42.96
2023-06-27T03:45:52.420Z,42.57
2023-06-27T03:48:19.007Z,42.83
2023-06-27T03:50:45.590Z,42.95
2023-06-27T03:53:12.187Z,43.24
2023-06-27T03:55:39.257Z,43.46
2023-06-27T03:58:06.124Z,43.18
2023-06-27T04:00:32.730Z,43.10
2023-06-27T04:02:59.362Z,42.86
2023-06-27T04:05:25.962Z,42.81
2023-06-27T04:07:52.563Z,42.85
2023-06-27T04:10:19.157Z,42.83
2023-06-27T04:12:45.762Z,42.81
2023-06-27T04:15:12.334Z,42.84
2023-06-27T04:17:39.067Z,42.94
2023-06-27T04:20:05.869Z,42.99
2023-06-27T04:22:32.437Z,42.98
2023-06-27T04:24:59.029Z,43.01
2023-06-27T04:27:25.603Z,42.99
2023-06-27T04:29:52.182Z,43.03
2023-06-27T04:32:18.803Z,43.03
2023-06-27T04:34:45.427Z,43.10
2023-06-27T04:37:12.030Z,43.07
2023-06-27T04:39:38.694Z,43.05
2023-06-27T04:42:05.256Z,43.06
2023-06-27T04:44:31.844Z,43.12
2023-06-27T04:46:58.448Z,43.06
2023-06-27T04:49:25.065Z,43.02
2023-06-27T04:51:51.675Z,43.02
2023-06-27T04:54:18.281Z,42.85
2023-06-27T04:56:44.871Z,42.76
2023-06-27T04:59:11.476Z,42.79
2023-06-27T05:01:38.057Z,42.82
2023-06-27T05:04:04.673Z,42.74
2023-06-27T05:06:31.283Z,42.61
2023-06-27T05:08:57.871Z,42.50
2023-06-27T05:11:24.469Z,42.73
2023-06-27T05:13:51.040Z,42.48
2023-06-27T05:16:17.634Z,42.54
2023-06-27T05:18:44.306Z,42.77
2023-06-27T05:21:10.912Z,42.67
2023-06-27T05:23:37.490Z,41.65
2023-06-27T05:26:04.092Z,40.93
2023-06-27T05:28:30.667Z,40.42
2023-06-27T05:30:57.310Z,40.53
2023-06-27T05:33:23.959Z,40.58
2023-06-27T05:35:50.571Z,40.92
2023-06-27T05:38:17.173Z,41.15
2023-06-27T05:40:43.766Z,41.25
2023-06-27T05:43:10.356Z,41.38
2023-06-27T05:45:37.163Z,41.45
2023-06-27T05:48:04.289Z,41.56
2023-06-27T05:50:30.983Z,41.59
2023-06-27T05:52:57.563Z,41.76
2023-06-27T05:55:24.159Z,41.76
2023-06-27T05:57:50.734Z,41.85
2023-06-27T06:00:17.320Z,41.85
2023-06-27T06:02:44.077Z,42.32
2023-06-27T06:05:10.803Z,41.91
2023-06-27T06:07:37.393Z,41.66
2023-06-27T06:10:03.985Z,41.44
2023-06-27T06:12:30.594Z,41.42
2023-06-27T06:14:57.207Z,41.47
2023-06-27T06:17:23.840Z,41.56
2023-06-27T06:19:50.445Z,41.62
2023-06-27T06:22:17.076Z,41.63
2023-06-27T06:24:43.700Z,41.58
2023-06-27T06:27:10.305Z,41.51
2023-06-27T06:29:36.898Z,41.66
2023-06-27T06:32:03.511Z,41.65
2023-06-27T06:34:30.144Z,41.64
2023-06-27T06:36:56.765Z,41.44
2023-06-27T06:39:23.356Z,41.49
2023-06-27T06:41:49.960Z,41.45
2023-06-27T06:44:16.537Z,41.61
2023-06-27T06:46:43.219Z,41.66
2023-06-27T06:49:09.918Z,41.64
2023-06-27T06:51:36.498Z,41.56
2023-06-27T06:54:03.083Z,41.60
2023-06-27T06:56:29.673Z,41.47
2023-06-27T06:58:56.264Z,41.45
2023-06-27T07:01:22.891Z,41.42
2023-06-27T07:03:49.521Z,41.42
2023-06-27T07:06:16.114Z,41.43
2023-06-27T07:08:42.700Z,41.38
2023-06-27T07:11:09.325Z,41.55
2023-06-27T07:13:35.911Z,41.44
2023-06-27T07:16:02.533Z,41.44
2023-06-27T07:18:29.138Z,41.42
2023-06-27T07:20:55.726Z,41.35
2023-06-27T07:23:22.555Z,41.44
2023-06-27T07:25:49.152Z,41.39
2023-06-27T07:28:15.793Z,41.44
2023-06-27T07:30:42.525Z,41.53
2023-06-27T07:33:09.563Z,41.46
2023-06-27T07:35:36.207Z,41.49
2023-06-27T07:38:02.785Z,41.31
2023-06-27T07:40:29.388Z,41.37
2023-06-27T07:42:55.981Z,41.32
2023-06-27T07:45:22.588Z,41.35
2023-06-27T07:47:49.223Z,41.37
2023-06-27T07:50:15.892Z,41.35
2023-06-27T07:52:42.473Z,41.25
2023-06-27T07:55:09.074Z,41.30
2023-06-27T07:57:35.654Z,41.24
2023-06-27T08:00:02.328Z,41.23
2023-06-27T08:02:29.010Z,41.28
2023-06-27T08:04:55.628Z,41.26
2023-06-27T08:07:22.324Z,41.18
2023-06-27T08:09:48.975Z,41.16
2023-06-27T08:12:15.639Z,41.19
2023-06-27T08:14:42.279Z,41.19
2023-06-27T08:17:08.953Z,41.21
2023-06-27T08:19:35.606Z,41.20
2023-06-27T08:22:02.216Z,41.13
2023-06-27T08:24:28.806Z,41.19
2023-06-27T08:26:55.470Z,41.32
2023-06-27T08:29:22.066Z,41.19
2023-06-27T08:31:48.704Z,41.14
2023-06-27T08:34:15.320Z,41.04
2023-06-27T08:36:41.892Z,40.96
2023-06-27T08:39:08.472Z,41.06
2023-06-27T08:41:35.093Z,40.93
2023-06-27T08:44:01.690Z,41.06
2023-06-27T08:46:28.291Z,41.02
2023-06-27T08:48:54.859Z,41.08
2023-06-27T08:51:21.456Z,41.10
2023-06-27T08:53:48.133Z,40.99
2023-06-27T08:56:14.730Z,41.06
2023-06-27T08:58:41.322Z,41.09
2023-06-27T09:01:07.948Z,41.14
2023-06-27T09:03:34.607Z,41.07
2023-06-27T09:06:01.256Z,41.08
2023-06-27T09:08:27.960Z,41.16
2023-06-27T09:10:54.559Z,41.12
2023-06-27T09:13:21.175Z,41.07
2023-06-27T09:15:47.770Z,41.08
2023-06-27T09:18:14.422Z,40.98
2023-06-27T09:20:41.263Z,40.90
2023-06-27T09:23:07.981Z,40.91
2023-06-27T09:25:34.606Z,40.94
2023-06-27T09:28:01.229Z,40.92
2023-06-27T09:30:27.830Z,40.85
2023-06-27T09:32:54.489Z,40.89
2023-06-27T09:35:40.268Z,40.87
2023-06-27T09:40:37.200Z,40.90
2023-06-27T09:43:03.802Z,40.86
2023-06-27T09:45:30.465Z,40.87
2023-06-27T09:47:57.106Z,40.87
2023-06-27T09:50:23.801Z,40.81
2023-06-27T09:52:50.409Z,40.91
2023-06-27T09:55:17.008Z,40.88
2023-06-27T09:57:43.603Z,40.87
2023-06-27T10:00:10.222Z,40.95
2023-06-27T10:02:36.851Z,40.91
2023-06-27T10:05:03.553Z,40.53
2023-06-27T10:07:30.222Z,40.66
2023-06-27T10:09:57.672Z,40.56
2023-06-27T10:12:24.273Z,40.40
2023-06-27T10:14:50.904Z,40.31
2023-06-27T10:17:17.523Z,40.36
2023-06-27T10:19:44.138Z,40.41
2023-06-27T10:22:10.764Z,40.36
2023-06-27T10:24:38.553Z,40.31
2023-06-27T10:27:06.902Z,40.28
2023-06-27T10:29:33.498Z,40.22
2023-06-27T10:32:00.112Z,40.27
2023-06-27T10:34:26.721Z,40.25
2023-06-27T10:36:53.320Z,40.31
2023-06-27T10:39:19.929Z,40.20
2023-06-27T10:41:46.533Z,40.27
2023-06-27T10:44:13.119Z,40.33
2023-06-27T10:46:39.716Z,40.36
2023-06-27T10:49:06.326Z,40.28
2023-06-27T10:51:32.917Z,40.29
2023-06-27T10:53:59.567Z,40.22
2023-06-27T10:56:26.189Z,40.15
2023-06-27T10:58:52.784Z,40.25
2023-06-27T11:01:19.451Z,40.28
2023-06-27T11:03:46.178Z,40.19
2023-06-27T11:06:12.907Z,40.22
2023-06-27T11:08:39.522Z,40.28
2023-06-27T11:11:06.145Z,40.27
2023-06-27T11:13:32.761Z,40.29
2023-06-27T11:15:59.465Z,40.33
2023-06-27T11:18:26.118Z,40.27
2023-06-27T11:20:52.715Z,40.27
2023-06-27T11:23:19.328Z,40.19
2023-06-27T11:25:45.947Z,40.21
2023-06-27T11:28:12.543Z,40.16
2023-06-27T11:30:39.388Z,40.07
2023-06-27T11:33:06.420Z,40.16
2023-06-27T11:35:33.112Z,40.18
2023-06-27T11:38:00.012Z,40.18
2023-06-27T11:40:26.779Z,40.22
2023-06-27T11:42:53.387Z,40.13
2023-06-27T11:45:20.002Z,40.10
2023-06-27T11:47:46.653Z,40.09
2023-06-27T11:50:13.280Z,40.08
2023-06-27T11:52:39.867Z,40.04
2023-06-27T11:55:06.470Z,40.12
2023-06-27T11:57:33.089Z,40.10
2023-06-27T11:59:59.741Z,40.11
2023-06-27T12:02:26.463Z,40.11
2023-06-27T12:04:53.109Z,39.99
2023-06-27T12:07:19.733Z,40.01
2023-06-27T12:09:46.408Z,39.96
2023-06-27T12:12:13.016Z,40.07
2023-06-27T12:14:39.641Z,40.03
2023-06-27T12:17:06.281Z,40.03
2023-06-27T12:19:32.894Z,40.00
2023-06-27T12:21:59.490Z,40.01
2023-06-27T12:24:26.090Z,40.03
2023-06-27T12:26:52.730Z,40.04
2023-06-27T12:29:20.330Z,39.92
2023-06-27T12:31:47.169Z,39.96
2023-06-27T12:34:13.771Z,40.00
2023-06-27T12:36:40.348Z,39.93
2023-06-27T12:39:06.951Z,39.94
2023-06-27T12:41:33.561Z,39.82
2023-06-27T12:44:00.217Z,39.91
2023-06-27T12:46:26.880Z,39.87
2023-06-27T12:48:53.510Z,39.83
2023-06-27T12:51:21.369Z,39.84
2023-06-27T12:53:48.096Z,39.91
2023-06-27T12:56:14.745Z,39.92
2023-06-27T12:58:41.342Z,39.94
2023-06-27T13:01:07.955Z,39.84
2023-06-27T13:03:34.726Z,39.91
2023-06-27T13:06:01.412Z,39.85
2023-06-27T13:08:28.017Z,39.87
2023-06-27T13:10:54.637Z,39.88
2023-06-27T13:13:21.241Z,39.90
2023-06-27T13:16:03.930Z,39.85
2023-06-27T13:18:34.684Z,39.78
2023-06-27T13:21:01.292Z,39.80
2023-06-27T13:23:27.887Z,39.79
2023-06-27T13:25:54.498Z,39.66
2023-06-27T13:28:21.118Z,39.70
2023-06-27T13:30:47.802Z,39.74
2023-06-27T13:33:14.496Z,39.70
2023-06-27T13:35:41.144Z,39.67
2023-06-27T13:38:07.780Z,39.65
2023-06-27T13:40:34.410Z,39.58
2023-06-27T13:43:01.113Z,39.71
2023-06-27T13:45:27.701Z,39.68
2023-06-27T13:47:54.357Z,39.77
2023-06-27T13:50:21.047Z,39.76
2023-06-27T13:52:47.669Z,39.79
2023-06-27T13:55:14.277Z,39.72
2023-06-27T13:57:40.921Z,39.69
2023-06-27T14:00:07.633Z,39.73
2023-06-27T14:02:34.354Z,39.38
2023-06-27T14:05:01.054Z,39.13
2023-06-27T14:07:27.696Z,38.16
2023-06-27T14:09:54.353Z,39.05
2023-06-27T14:12:20.984Z,39.32
2023-06-27T14:14:47.608Z,39.39
2023-06-27T14:17:14.217Z,39.35
2023-06-27T14:19:40.808Z,39.34
2023-06-27T14:22:07.410Z,39.41
2023-06-27T14:24:34.044Z,39.43
2023-06-27T14:27:00.653Z,39.52
2023-06-27T14:29:27.244Z,39.51
2023-06-27T14:31:53.840Z,39.45
2023-06-27T14:34:20.453Z,39.46
2023-06-27T14:36:47.061Z,39.51
2023-06-27T14:39:14.574Z,39.53
2023-06-27T14:41:41.417Z,39.56
2023-06-27T14:44:08.036Z,39.60
2023-06-27T14:46:34.638Z,39.62
2023-06-27T14:49:01.243Z,39.60
2023-06-27T14:51:27.864Z,39.57
2023-06-27T14:53:54.524Z,39.57
2023-06-27T14:56:21.136Z,39.57
2023-06-27T14:58:47.721Z,39.52
2023-06-27T15:01:14.505Z,39.57
2023-06-27T15:03:41.381Z,39.46
2023-06-27T15:06:08.100Z,39.52
2023-06-27T15:08:34.691Z,39.35
2023-06-27T15:11:01.321Z,39.29
2023-06-27T15:13:27.897Z,39.28
2023-06-27T15:15:54.483Z,39.31
2023-06-27T15:18:21.151Z,39.32
2023-06-27T15:20:47.782Z,39.29
2023-06-27T15:23:22.311Z,39.24
2023-06-27T15:25:56.186Z,39.20
2023-06-27T15:28:22.776Z,39.22
2023-06-27T15:30:49.399Z,39.22
2023-06-27T15:33:16.026Z,39.19
2023-06-27T15:35:42.945Z,39.20
2023-06-27T15:38:09.817Z,39.23
2023-06-27T15:40:36.396Z,39.15
2023-06-27T15:43:03.205Z,39.24
2023-06-27T15:45:29.863Z,39.15
2023-06-27T15:47:56.489Z,38.95
2023-06-27T15:50:23.128Z,38.93
2023-06-27T15:52:49.719Z,38.81
2023-06-27T15:55:16.314Z,38.77
2023-06-27T15:57:42.886Z,38.69
2023-06-27T16:00:09.476Z,38.66
2023-06-27T16:02:36.138Z,38.57
2023-06-27T16:05:02.907Z,38.54
2023-06-27T16:07:29.711Z,38.52
2023-06-27T16:09:56.422Z,38.36
2023-06-27T16:12:23.020Z,38.29
2023-06-27T16:14:49.616Z,38.30
2023-06-27T16:17:16.210Z,38.10
2023-06-27T16:19:42.845Z,38.13
2023-06-27T16:22:09.440Z,38.07
2023-06-27T16:24:36.018Z,37.91
2023-06-27T16:27:02.623Z,37.88
2023-06-27T16:29:29.202Z,37.80
2023-06-27T16:31:55.991Z,37.79
2023-06-27T16:34:22.658Z,37.68
2023-06-27T16:36:49.282Z,37.63
2023-06-27T16:39:15.857Z,37.44
2023-06-27T16:41:42.437Z,37.29
2023-06-27T16:44:11.232Z,37.19
2023-06-27T16:46:38.151Z,37.31
2023-06-27T16:49:04.768Z,37.28
2023-06-27T16:51:31.382Z,37.28
2023-06-27T16:53:57.961Z,37.42
2023-06-27T16:56:24.535Z,37.56
2023-06-27T16:58:51.117Z,37.74
2023-06-27T17:01:17.709Z,38.13
2023-06-27T17:03:44.342Z,38.16
2023-06-27T17:06:11.029Z,38.18
2023-06-27T17:08:37.615Z,38.27
2023-06-27T17:11:04.247Z,38.41
2023-06-27T17:13:30.849Z,38.50
2023-06-27T17:15:57.429Z,38.46
2023-06-27T17:18:24.066Z,38.32
2023-06-27T17:20:50.688Z,38.41
2023-06-27T17:23:17.321Z,38.43
2023-06-27T17:25:44.123Z,38.41
2023-06-27T17:28:10.823Z,38.42
2023-06-27T17:30:37.442Z,38.43
2023-06-27T17:33:04.108Z,38.45
2023-06-27T17:35:30.722Z,38.39
2023-06-27T17:37:57.318Z,38.44
2023-06-27T17:40:23.889Z,38.44
2023-06-27T17:42:50.496Z,38.54
2023-06-27T17:45:17.087Z,38.58
2023-06-27T17:47:43.712Z,38.66
2023-06-27T17:50:10.386Z,38.64
2023-06-27T17:52:37.026Z,38.70
2023-06-27T17:55:03.634Z,38.65
2023-06-27T17:57:30.223Z,38.69
2023-06-27T17:59:56.823Z,38.69
2023-06-27T18:02:23.498Z,38.69
2023-06-27T18:04:50.113Z,38.63
2023-06-27T18:07:32.549Z,38.70
2023-06-27T18:10:03.248Z,38.64
2023-06-27T18:12:29.838Z,38.48
2023-06-27T18:14:56.422Z,38.50
2023-06-27T18:17:23.029Z,38.47
2023-06-27T18:19:49.660Z,38.54
2023-06-27T18:22:16.240Z,38.44
2023-06-27T18:24:42.844Z,38.48
2023-06-27T18:27:09.431Z,38.49
2023-06-27T18:29:36.035Z,38.50
2023-06-27T18:32:02.649Z,38.44
2023-06-27T18:34:29.365Z,38.49
2023-06-27T18:36:55.947Z,35.49
2023-06-27T18:39:22.540Z,28.73
2023-06-27T18:41:49.158Z,27.26
2023-06-27T18:44:15.767Z,26.19
2023-06-27T18:46:42.344Z,25.80
2023-06-27T18:49:08.944Z,25.96
2023-06-27T18:51:35.532Z,26.14
2023-06-27T18:54:02.142Z,24.97
2023-06-27T18:56:28.727Z,26.37
2023-06-27T18:58:55.333Z,25.30
2023-06-27T19:01:21.993Z,26.13
2023-06-27T19:03:48.641Z,25.87
2023-06-27T19:06:15.333Z,25.71
2023-06-27T19:08:42.026Z,26.30
2023-06-27T19:11:08.600Z,24.86
2023-06-27T19:13:35.232Z,26.05
2023-06-27T19:16:01.823Z,24.42
2023-06-27T19:18:28.909Z,24.46
2023-06-27T19:20:55.954Z,25.32
2023-06-27T19:23:23.034Z,25.88
2023-06-27T19:25:49.616Z,25.71
2023-06-27T19:28:16.234Z,26.12
2023-06-27T19:30:43.177Z,26.39
2023-06-27T19:33:09.968Z,26.76
2023-06-27T19:35:36.563Z,26.71
2023-06-27T19:38:03.154Z,27.17
2023-06-27T19:40:29.759Z,26.28
2023-06-27T19:42:56.369Z,26.47
2023-06-27T19:45:22.983Z,27.39
2023-06-27T19:47:49.627Z,26.86
2023-06-27T19:50:16.254Z,26.75
2023-06-27T19:52:42.823Z,26.80
2023-06-27T19:55:09.426Z,26.77
2023-06-27T19:57:36.008Z,27.57
2023-06-27T20:00:02.593Z,27.64
2023-06-27T20:02:29.251Z,27.18
2023-06-27T20:04:55.868Z,27.18
2023-06-27T20:07:22.533Z,27.45
2023-06-27T20:09:49.153Z,27.12
2023-06-27T20:12:15.763Z,27.50
2023-06-27T20:14:42.356Z,27.37
2023-06-27T20:17:11.694Z,26.92
2023-06-27T20:19:38.281Z,27.13
2023-06-27T20:22:04.865Z,27.02
2023-06-27T20:24:31.464Z,27.46
2023-06-27T20:26:58.070Z,27.27
2023-06-27T20:29:24.635Z,27.65
2023-06-27T20:31:51.257Z,27.33
2023-06-27T20:34:17.858Z,27.50
2023-06-27T20:36:44.449Z,27.83
2023-06-27T20:39:11.063Z,28.34
2023-06-27T20:41:37.691Z,28.21
2023-06-27T20:44:04.279Z,28.16
2023-06-27T20:46:30.876Z,28.27
2023-06-27T20:48:57.480Z,28.12
2023-06-27T20:51:24.063Z,28.27
2023-06-27T20:53:50.670Z,28.33
2023-06-27T20:56:17.236Z,28.06
2023-06-27T20:58:43.828Z,28.14
2023-06-27T21:01:10.431Z,28.44
2023-06-27T21:03:37.161Z,28.63
2023-06-27T21:06:03.804Z,28.34
2023-06-27T21:08:30.402Z,28.78
2023-06-27T21:10:57.031Z,28.76
2023-06-27T21:13:23.620Z,28.96
2023-06-27T21:15:50.216Z,29.03
2023-06-27T21:18:16.805Z,33.41
2023-06-27T21:20:43.661Z,32.16
2023-06-27T21:23:10.481Z,30.56
2023-06-27T21:25:37.172Z,30.57
2023-06-27T21:28:03.769Z,30.28
2023-06-27T21:30:30.414Z,30.16
2023-06-27T21:32:57.070Z,30.18
2023-06-27T21:35:23.696Z,30.35
2023-06-27T21:37:50.285Z,30.40
2023-06-27T21:40:16.889Z,30.63
2023-06-27T21:42:43.502Z,30.89
2023-06-27T21:45:10.094Z,31.21
2023-06-27T21:47:36.755Z,32.96
2023-06-27T21:50:03.363Z,32.24
2023-06-27T21:52:29.940Z,32.30
2023-06-27T21:54:56.544Z,32.16
2023-06-27T21:57:23.137Z,31.86
2023-06-27T21:59:49.722Z,32.18
2023-06-27T22:02:16.340Z,32.39
2023-06-27T22:04:43.054Z,32.46
2023-06-27T22:07:09.927Z,32.76
2023-06-27T22:09:36.566Z,32.37
2023-06-27T22:12:03.157Z,32.29
2023-06-27T22:14:29.780Z,32.20
2023-06-27T22:16:56.393Z,32.37
2023-06-27T22:19:22.975Z,32.61
2023-06-27T22:21:49.561Z,32.70
2023-06-27T22:24:16.167Z,32.81
2023-06-27T22:26:42.788Z,32.90
2023-06-27T22:29:09.378Z,32.99
2023-06-27T22:31:36.004Z,33.11
2023-06-27T22:34:02.622Z,33.31
2023-06-27T22:36:29.210Z,33.45
2023-06-27T22:38:55.848Z,33.51
2023-06-27T22:41:22.457Z,33.56
2023-06-27T22:43:49.044Z,33.54
2023-06-27T22:46:15.692Z,33.77
2023-06-27T22:48:42.285Z,33.98
2023-06-27T22:51:08.880Z,33.87
2023-06-27T22:53:35.472Z,33.87
2023-06-27T22:56:02.056Z,33.82
2023-06-27T22:58:28.662Z,33.80
2023-06-27T23:00:55.291Z,33.92
2023-06-27T23:03:21.896Z,33.97
2023-06-27T23:05:48.501Z,34.09
2023-06-27T23:08:15.099Z,34.27
2023-06-27T23:10:41.900Z,34.41
2023-06-27T23:13:08.717Z,34.39
2023-06-27T23:15:35.313Z,34.56
2023-06-27T23:18:01.986Z,34.50
2023-06-27T23:20:28.678Z,34.81
2023-06-27T23:22:55.348Z,34.74
2023-06-27T23:25:21.928Z,34.82
2023-06-27T23:27:48.590Z,35.09
2023-06-27T23:30:15.240Z,35.03
2023-06-27T23:32:41.885Z,35.06
2023-06-27T23:35:08.510Z,35.16
2023-06-27T23:37:35.091Z,35.44
2023-06-27T23:40:01.683Z,35.33
2023-06-27T23:42:28.290Z,35.16
2023-06-27T23:44:54.886Z,35.44
2023-06-27T23:47:21.519Z,35.40
2023-06-27T23:49:48.142Z,35.20
2023-06-27T23:52:14.728Z,35.14
2023-06-27T23:54:41.316Z,35.28
2023-06-27T23:57:07.917Z,35.30
2023-06-27T23:59:34.530Z,35.44
